createdAt,value
2022-08-26T00:03:39.408Z,100.00
2022-08-26T00:08:43.811Z,100.00
2022-08-26T00:13:49.651Z,100.00
2022-08-26T00:18:53.225Z,100.00
2022-08-26T00:23:56.279Z,100.00
2022-08-26T00:28:58.996Z,100.00
2022-08-26T00:34:03.179Z,100.00
2022-08-26T00:39:07.588Z,100.00
2022-08-26T00:44:14.053Z,100.00
2022-08-26T00:49:33.868Z,100.00
2022-08-26T00:54:42.376Z,100.00
2022-08-26T00:59:51.439Z,100.00
2022-08-26T01:04:59.109Z,100.00
2022-08-26T01:10:07.995Z,100.00
2022-08-26T01:15:16.342Z,100.00
2022-08-26T01:20:28.342Z,100.00
2022-08-26T01:25:33.578Z,100.00
2022-08-26T01:30:39.508Z,100.00
2022-08-26T01:35:43.390Z,100.00
2022-08-26T01:40:47.225Z,100.00
2022-08-26T01:45:51.583Z,100.00
2022-08-26T01:50:55.885Z,100.00
2022-08-26T01:56:01.330Z,100.00
2022-08-26T02:01:06.410Z,100.00
2022-08-26T02:06:10.371Z,100.00
2022-08-26T02:11:13.685Z,100.00
2022-08-26T02:16:19.477Z,100.00
2022-08-26T02:21:25.073Z,100.00
2022-08-26T02:26:27.887Z,100.00
2022-08-26T02:31:30.587Z,100.00
2022-08-26T02:36:33.446Z,100.00
2022-08-26T02:41:44.073Z,100.00
2022-08-26T02:46:48.364Z,100.00
2022-08-26T02:51:52.696Z,100.00
2022-08-26T02:56:56.367Z,100.00
2022-08-26T03:02:00.492Z,100.00
2022-08-26T03:07:04.254Z,100.00
2022-08-26T03:12:08.045Z,100.00
2022-08-26T03:17:10.901Z,100.00
2022-08-26T03:22:14.533Z,100.00
2022-08-26T03:27:17.828Z,100.00
2022-08-26T03:32:20.805Z,100.00
2022-08-26T03:37:23.588Z,100.00
2022-08-26T03:42:26.472Z,100.00
2022-08-26T03:47:29.266Z,100.00
2022-08-26T03:52:32.077Z,100.00
2022-08-26T03:57:34.806Z,100.00
2022-08-26T04:02:38.156Z,100.00
2022-08-26T04:07:42.982Z,100.00
2022-08-26T04:12:46.361Z,100.00
2022-08-26T04:17:49.299Z,100.00
2022-08-26T04:22:52.645Z,100.00
2022-08-26T04:27:55.635Z,100.00
2022-08-26T04:32:58.709Z,100.00
2022-08-26T04:38:03.368Z,100.00
2022-08-26T04:43:08.987Z,100.00
2022-08-26T04:48:12.333Z,100.00
2022-08-26T04:53:20.533Z,100.00
2022-08-26T04:58:25.228Z,100.00
2022-08-26T05:03:30.534Z,100.00
2022-08-26T05:08:34.182Z,100.00
2022-08-26T05:13:39.223Z,100.00
2022-08-26T05:18:43.704Z,100.00
2022-08-26T05:23:50.553Z,100.00
2022-08-26T05:28:54.735Z,100.00
2022-08-26T05:33:59.236Z,100.00
2022-08-26T05:39:07.935Z,100.00
2022-08-26T05:44:20.246Z,100.00
2022-08-26T05:49:26.418Z,100.00
2022-08-26T05:54:29.544Z,100.00
2022-08-26T05:59:32.500Z,100.00
2022-08-26T06:04:35.559Z,100.00
2022-08-26T06:09:39.907Z,100.00
2022-08-26T06:14:42.878Z,100.00
2022-08-26T06:19:45.717Z,100.00
2022-08-26T06:25:07.442Z,100.00
2022-08-26T06:30:13.204Z,100.00
2022-08-26T06:35:16.404Z,99.92
2022-08-26T06:40:21.030Z,98.47
2022-08-26T06:45:24.230Z,97.41
2022-08-26T06:50:27.109Z,96.12
2022-08-26T06:55:30.477Z,95.86
2022-08-26T07:00:33.901Z,93.53
2022-08-26T07:05:37.116Z,92.03
2022-08-26T07:10:39.891Z,90.09
2022-08-26T07:15:42.800Z,87.09
2022-08-26T07:20:45.830Z,86.58
2022-08-26T07:25:48.553Z,85.36
2022-08-26T07:30:52.072Z,84.55
2022-08-26T07:35:56.247Z,81.75
2022-08-26T07:40:59.523Z,81.41
2022-08-26T07:46:04.291Z,81.56
2022-08-26T07:51:07.627Z,80.21
2022-08-26T07:56:11.626Z,78.91
2022-08-26T08:01:14.894Z,78.14
2022-08-26T08:06:21.358Z,76.71
2022-08-26T08:11:27.297Z,76.51
2022-08-26T08:16:32.224Z,76.21
2022-08-26T08:21:36.178Z,75.46
2022-08-26T08:26:39.479Z,76.01
2022-08-26T08:31:58.353Z,75.93
2022-08-26T08:37:07.344Z,74.01
2022-08-26T08:42:36.774Z,71.46
2022-08-26T08:47:50.522Z,69.14
2022-08-26T08:53:15.283Z,66.53
2022-08-26T08:58:22.079Z,65.73
2022-08-26T09:03:40.376Z,64.80
2022-08-26T09:08:47.030Z,63.80
2022-08-26T09:13:55.347Z,62.69
2022-08-26T09:19:11.472Z,61.13
2022-08-26T09:24:14.268Z,59.05
2022-08-26T09:29:26.849Z,58.09
2022-08-26T09:34:29.667Z,55.46
2022-08-26T09:39:37.523Z,55.12
2022-08-26T09:45:03.919Z,54.35
2022-08-26T09:50:30.160Z,53.29
2022-08-26T09:55:33.095Z,51.05
2022-08-26T10:00:39.369Z,48.55
2022-08-26T10:06:00.207Z,48.74
2022-08-26T10:11:11.247Z,48.16
2022-08-26T10:16:14.585Z,47.44
2022-08-26T10:21:37.729Z,47.80
2022-08-26T10:26:54.441Z,46.87
2022-08-26T10:32:03.404Z,46.66
2022-08-26T10:37:15.636Z,47.08
2022-08-26T10:42:37.606Z,46.75
2022-08-26T10:47:48.697Z,46.82
2022-08-26T10:53:06.374Z,48.49
2022-08-26T10:58:30.201Z,49.64
2022-08-26T11:04:14.269Z,49.25
2022-08-26T11:09:45.948Z,48.82
2022-08-26T11:14:58.667Z,49.07
2022-08-26T11:20:08.933Z,49.85
2022-08-26T11:25:18.450Z,50.97
2022-08-26T11:30:21.543Z,51.52
2022-08-26T11:35:26.902Z,51.03
2022-08-26T11:40:35.410Z,51.87
2022-08-26T11:45:42.204Z,50.79
2022-08-26T11:50:55.394Z,47.75
2022-08-26T11:56:00.568Z,47.06
2022-08-26T12:01:09.928Z,45.98
2022-08-26T12:06:23.019Z,45.14
2022-08-26T12:11:27.285Z,43.43
2022-08-26T12:16:36.048Z,43.71
2022-08-26T12:21:38.826Z,43.85
2022-08-26T12:26:42.119Z,43.18
2022-08-26T12:31:44.959Z,41.75
2022-08-26T12:36:56.839Z,41.71
2022-08-26T12:42:04.501Z,41.73
2022-08-26T12:47:42.150Z,40.21
2022-08-26T12:52:52.393Z,40.38
2022-08-26T12:58:13.528Z,40.11
2022-08-26T13:03:34.557Z,39.01
2022-08-26T13:08:41.344Z,38.77
2022-08-26T13:13:45.832Z,38.62
2022-08-26T13:18:57.722Z,38.98
2022-08-26T13:24:16.848Z,38.75
2022-08-26T13:29:20.142Z,38.83
2022-08-26T13:34:24.234Z,38.56
2022-08-26T13:39:27.340Z,38.21
2022-08-26T13:44:30.295Z,37.52
2022-08-26T13:49:33.364Z,36.41
2022-08-26T13:54:36.411Z,36.96
2022-08-26T13:59:39.266Z,36.92
2022-08-26T14:04:43.600Z,39.56
2022-08-26T14:09:46.709Z,41.19
2022-08-26T14:14:49.617Z,41.27
2022-08-26T14:19:53.814Z,42.47
2022-08-26T14:24:56.960Z,42.87
2022-08-26T14:30:00.269Z,43.57
2022-08-26T14:35:03.325Z,43.64
2022-08-26T14:40:07.212Z,43.91
2022-08-26T14:45:15.998Z,44.09
2022-08-26T14:50:24.862Z,42.71
2022-08-26T14:55:28.203Z,40.28
2022-08-26T15:00:31.512Z,38.13
2022-08-26T15:05:34.646Z,37.19
2022-08-26T15:10:38.191Z,34.80
2022-08-26T15:15:41.083Z,34.54
2022-08-26T15:20:44.654Z,32.58
2022-08-26T15:25:48.321Z,31.73
2022-08-26T15:30:51.338Z,30.95
2022-08-26T15:35:55.981Z,30.71
2022-08-26T15:41:02.955Z,31.02
2022-08-26T15:46:11.726Z,29.92
2022-08-26T15:51:22.657Z,29.61
2022-08-26T15:56:32.661Z,29.34
2022-08-26T16:01:37.325Z,29.15
2022-08-26T16:06:42.563Z,29.02
2022-08-26T16:11:45.431Z,29.20
2022-08-26T16:16:49.232Z,29.15
2022-08-26T16:21:52.128Z,29.10
2022-08-26T16:26:54.986Z,28.85
2022-08-26T16:31:57.850Z,29.66
2022-08-26T16:37:00.757Z,29.84
2022-08-26T16:42:03.741Z,30.37
2022-08-26T16:47:06.916Z,31.52
2022-08-26T16:52:11.338Z,32.13
2022-08-26T16:57:16.908Z,32.76
2022-08-26T17:02:20.246Z,34.62
2022-08-26T17:07:23.635Z,36.70
2022-08-26T17:12:26.847Z,37.85
2022-08-26T17:17:29.708Z,40.10
2022-08-26T17:22:34.679Z,42.60
2022-08-26T17:27:37.812Z,45.40
2022-08-26T17:32:42.402Z,48.03
2022-08-26T17:37:45.275Z,50.55
2022-08-26T17:42:48.831Z,51.68
2022-08-26T17:47:53.707Z,52.61
2022-08-26T17:52:56.496Z,54.35
2022-08-26T17:57:59.486Z,56.44
2022-08-26T18:03:02.777Z,59.39
2022-08-26T18:08:06.421Z,61.64
2022-08-26T18:13:09.690Z,64.03
2022-08-26T18:18:16.079Z,66.17
2022-08-26T18:23:18.978Z,67.55
2022-08-26T18:28:21.815Z,68.66
2022-08-26T18:33:24.629Z,69.91
2022-08-26T18:38:28.463Z,71.51
2022-08-26T18:43:31.292Z,74.00
2022-08-26T18:48:36.765Z,75.69
2022-08-26T18:53:39.530Z,76.09
2022-08-26T18:58:42.249Z,76.61
2022-08-26T19:03:46.282Z,77.26
2022-08-26T19:08:50.175Z,78.62
2022-08-26T19:13:55.297Z,79.43
2022-08-26T19:18:58.942Z,80.04
2022-08-26T19:24:04.177Z,80.35
2022-08-26T19:29:07.136Z,80.80
2022-08-26T19:34:10.585Z,81.41
2022-08-26T19:39:13.460Z,82.40
2022-08-26T19:44:37.781Z,83.42
2022-08-26T19:49:40.578Z,84.44
2022-08-26T19:54:44.550Z,85.23
2022-08-26T19:59:47.517Z,86.19
2022-08-26T20:04:50.282Z,87.05
2022-08-26T20:09:53.116Z,88.08
2022-08-26T20:14:55.951Z,89.35
2022-08-26T20:20:28.454Z,89.98
2022-08-26T20:25:36.344Z,90.49
2022-08-26T20:30:40.170Z,90.75
2022-08-26T20:35:43.075Z,91.10
2022-08-26T20:40:46.287Z,91.62
2022-08-26T20:45:50.257Z,91.99
2022-08-26T20:50:57.533Z,92.08
2022-08-26T20:56:02.875Z,92.43
2022-08-26T21:01:08.271Z,93.08
2022-08-26T21:06:11.558Z,93.87
2022-08-26T21:11:15.176Z,94.76
2022-08-26T21:16:19.713Z,95.60
2022-08-26T21:21:25.025Z,95.92
2022-08-26T21:26:28.398Z,96.43
2022-08-26T21:31:32.375Z,96.81
2022-08-26T21:36:35.455Z,97.30
2022-08-26T21:41:39.217Z,97.50
2022-08-26T21:46:43.796Z,98.01
2022-08-26T21:51:48.487Z,98.58
2022-08-26T21:56:51.446Z,99.01
2022-08-26T22:01:54.718Z,98.99
2022-08-26T22:06:59.199Z,99.29
2022-08-26T22:12:02.204Z,99.69
2022-08-26T22:17:05.545Z,99.76
2022-08-26T22:22:08.584Z,99.87
2022-08-26T22:27:12.174Z,99.96
2022-08-26T22:32:15.241Z,100.00
2022-08-26T22:37:18.162Z,100.00
2022-08-26T22:42:21.007Z,100.00
2022-08-26T22:47:24.273Z,100.00
2022-08-26T22:52:27.491Z,100.00
2022-08-26T22:57:30.494Z,100.00
2022-08-26T23:02:33.340Z,100.00
2022-08-26T23:07:36.598Z,100.00
2022-08-26T23:12:39.513Z,100.00
2022-08-26T23:17:42.617Z,100.00
2022-08-26T23:22:45.544Z,100.00
2022-08-26T23:27:48.851Z,100.00
2022-08-26T23:32:52.155Z,100.00
2022-08-26T23:37:55.072Z,100.00
2022-08-26T23:43:05.738Z,100.00
2022-08-26T23:48:08.917Z,100.00
2022-08-26T23:53:19.489Z,100.00
2022-08-26T23:58:22.946Z,100.00
